Time;durP1;ratioP1;P1;durP2;ratioP2;P2;SDS_P1;SDS_P2;PMS_P1;PMS_P2;Temp;Humidity;BMP_temperature;BMP_pressure;BME280_temperature;BME280_humidity;BME280_pressure;Samples;Min_cycle;Max_cycle;Signal;HPM_P1;HPM_P2
2023/06/12 00:00:56;;;;;;;19.67;8.68;;;;;;;19.29;28.31;100354.91;5022651;28;20047;-65
2023/06/12 00:03:24;;;;;;;19.85;9.30;;;;;;;19.35;28.41;100348.75;5022531;28;20090;-65
2023/06/12 00:05:50;;;;;;;16.90;9.32;;;;;;;19.11;28.64;100349.16;5006033;28;20047;-65
2023/06/12 00:08:20;;;;;;;24.05;9.48;;;;;;;19.25;28.41;100349.03;5022229;28;20044;-66
2023/06/12 00:10:47;;;;;;;21.48;8.85;;;;;;;19.19;28.40;100355.22;5039404;28;20072;-65
2023/06/12 00:13:14;;;;;;;22.23;9.60;;;;;;;19.18;28.81;100353.56;5038723;28;20059;-65
2023/06/12 00:15:40;;;;;;;22.23;10.07;;;;;;;19.11;28.84;100349.16;5038773;28;20047;-65
2023/06/12 00:18:06;;;;;;;26.33;10.07;;;;;;;19.06;28.79;100346.22;5037810;28;20036;-65
2023/06/12 00:20:33;;;;;;;18.38;8.90;;;;;;;19.17;28.59;100343.00;5022084;28;20370;-65
2023/06/12 00:22:59;;;;;;;19.52;9.00;;;;;;;19.03;28.87;100350.16;5022060;28;20040;-65
2023/06/12 00:25:26;;;;;;;18.25;9.30;;;;;;;19.07;28.95;100348.72;5021994;28;20392;-64
2023/06/12 00:27:52;;;;;;;26.85;10.98;;;;;;;19.09;28.91;100349.34;5038356;28;20056;-65
2023/06/12 00:30:19;;;;;;;19.17;9.18;;;;;;;18.89;28.92;100359.13;5005540;28;20044;-65
2023/06/12 00:32:47;;;;;;;23.48;8.40;;;;;;;19.17;28.78;100341.16;5022434;28;20051;-66
2023/06/12 00:35:18;;;;;;;20.17;8.82;;;;;;;18.96;29.11;100362.69;5022007;28;20148;-65
2023/06/12 00:37:46;;;;;;;18.50;8.68;;;;;;;19.06;29.02;100363.22;5022507;28;20044;-66
2023/06/12 00:40:12;;;;;;;17.33;8.35;;;;;;;18.95;29.08;100379.88;5005760;28;20040;-65
2023/06/12 00:42:45;;;;;;;25.77;7.97;;;;;;;19.23;29.04;100378.06;5005493;28;20052;-65
2023/06/12 00:45:13;;;;;;;16.63;7.97;;;;;;;19.02;29.23;100370.00;5022127;28;20054;-65
2023/06/12 00:47:41;;;;;;;21.13;8.35;;;;;;;19.08;29.17;100366.53;4994294;28;20058;-65
2023/06/12 00:50:11;;;;;;;17.67;9.23;;;;;;;18.97;29.26;100383.22;4994158;28;20049;-65
2023/06/12 00:52:40;;;;;;;18.83;8.85;;;;;;;19.16;29.04;100379.03;4971529;28;20046;-65
2023/06/12 00:55:06;;;;;;;17.70;8.02;;;;;;;18.85;29.03;100375.88;4955557;28;20062;-65
2023/06/12 00:57:33;;;;;;;18.73;8.70;;;;;;;18.74;29.48;100379.91;4923471;28;20059;-65
2023/06/12 01:00:01;;;;;;;21.25;9.38;;;;;;;19.04;29.44;100384.09;4923705;28;20394;-65
2023/06/12 01:02:30;;;;;;;21.05;9.68;;;;;;;18.67;29.60;100383.53;4924413;28;20520;-65
2023/06/12 01:04:56;;;;;;;20.05;8.98;;;;;;;18.68;29.61;100394.13;4923438;28;20055;-65
2023/06/12 01:07:29;;;;;;;17.98;8.35;;;;;;;19.05;29.90;100396.53;4955162;28;20589;-65
2023/06/12 01:10:09;;;;;;;23.27;9.40;;;;;;;19.05;29.82;100395.72;4955297;28;20046;-65
2023/06/12 01:12:36;;;;;;;14.25;8.38;;;;;;;18.78;29.85;100388.41;4923386;28;20518;-65
2023/06/12 01:15:03;;;;;;;22.75;8.85;;;;;;;18.67;29.56;100389.75;4923462;28;20053;-65
2023/06/12 01:17:30;;;;;;;19.60;7.85;;;;;;;18.77;29.81;100390.28;4925995;28;20078;-65
2023/06/12 01:20:03;;;;;;;16.85;7.45;;;;;;;18.71;29.89;100392.91;4997141;28;20076;-65
2023/06/12 01:22:32;;;;;;;16.20;7.68;;;;;;;19.04;29.76;100394.03;5015649;28;20385;-65
2023/06/12 01:25:17;;;;;;;12.55;7.65;;;;;;;19.19;29.66;100398.31;5005002;28;20109;-65
2023/06/12 01:27:59;;;;;;;21.65;7.50;;;;;;;19.12;29.73;100402.81;5037675;28;20106;-65
2023/06/12 01:30:34;;;;;;;13.77;6.85;;;;;;;19.19;29.46;100403.69;5008960;28;20094;-65
2023/06/12 01:33:03;;;;;;;12.15;5.90;;;;;;;19.07;29.63;100396.34;4997732;28;20050;-65
2023/06/12 01:35:35;;;;;;;13.60;6.95;;;;;;;19.10;29.78;100399.47;4949858;28;20058;-65
2023/06/12 01:38:08;;;;;;;11.18;5.80;;;;;;;19.13;29.62;100406.34;4981742;28;20060;-65
2023/06/12 01:40:38;;;;;;;14.75;5.85;;;;;;;19.04;29.80;100402.13;4965756;28;20044;-65
2023/06/12 01:43:04;;;;;;;12.38;5.80;;;;;;;18.83;29.74;100402.13;4965425;28;20519;-65
2023/06/12 01:45:32;;;;;;;9.70;5.88;;;;;;;19.05;29.90;100414.56;4965825;28;20120;-65
2023/06/12 01:48:00;;;;;;;8.57;5.30;;;;;;;19.04;30.03;100419.09;4949592;28;20127;-65
2023/06/12 01:50:27;;;;;;;12.10;5.00;;;;;;;18.75;29.84;100421.94;4981595;28;20042;-65
2023/06/12 01:52:53;;;;;;;12.30;4.35;;;;;;;18.70;30.08;100421.66;4965265;28;20489;-65
2023/06/12 01:55:21;;;;;;;8.90;4.95;;;;;;;18.73;29.96;100423.16;4965182;28;20045;-66
2023/06/12 01:57:50;;;;;;;6.85;4.00;;;;;;;18.97;30.07;100429.00;4965823;28;20417;-66
2023/06/12 02:00:20;;;;;;;8.07;3.85;;;;;;;18.72;30.02;100410.72;4966350;28;20069;-66
2023/06/12 02:02:53;;;;;;;6.38;3.72;;;;;;;19.08;29.85;100430.34;4982516;28;20104;-65
2023/06/12 02:05:21;;;;;;;6.68;3.78;;;;;;;18.72;30.06;100422.31;5025063;28;20472;-65
2023/06/12 02:07:48;;;;;;;5.03;3.40;;;;;;;18.85;30.11;100425.13;5041531;28;20163;-65
2023/06/12 02:10:15;;;;;;;8.75;3.45;;;;;;;18.74;30.33;100425.66;5024689;28;20044;-65
2023/06/12 02:12:43;;;;;;;8.35;3.20;;;;;;;18.85;30.37;100427.81;5024494;28;20085;-65
2023/06/12 02:15:13;;;;;;;7.93;3.08;;;;;;;18.97;30.46;100420.94;5024901;28;20131;-65
2023/06/12 02:17:39;;;;;;;8.73;3.50;;;;;;;18.78;30.30;100421.56;5024361;28;20036;-65
2023/06/12 02:20:06;;;;;;;4.28;3.20;;;;;;;18.85;30.22;100427.00;5024499;28;20040;-65
2023/06/12 02:22:32;;;;;;;6.68;3.30;;;;;;;18.77;30.33;100419.91;5024102;28;20052;-65
2023/06/12 02:24:59;;;;;;;5.60;2.95;;;;;;;18.86;30.21;100425.97;5024215;28;20059;-65
2023/06/12 02:27:26;;;;;;;7.40;3.10;;;;;;;18.82;30.12;100427.38;5017797;28;20053;-65
2023/06/12 02:29:52;;;;;;;10.20;3.40;;;;;;;18.85;30.14;100417.06;5001168;28;20053;-66
2023/06/12 02:32:20;;;;;;;6.68;2.90;;;;;;;18.98;30.16;100427.97;5001893;28;20045;-65
2023/06/12 02:34:48;;;;;;;5.95;3.28;;;;;;;18.99;30.18;100428.81;5001565;28;20049;-65
2023/06/12 02:37:14;;;;;;;6.88;3.03;;;;;;;18.97;30.45;100429.00;5001231;28;20081;-65
2023/06/12 02:39:44;;;;;;;8.50;3.83;;;;;;;19.02;30.21;100433.81;5001208;28;20148;-64
2023/06/12 02:42:10;;;;;;;7.82;3.35;;;;;;;19.09;30.01;100430.16;5000544;28;20049;-65
2023/06/12 02:44:37;;;;;;;8.40;3.10;;;;;;;19.15;29.94;100425.84;4984791;28;20385;-65
2023/06/12 02:47:03;;;;;;;8.10;2.80;;;;;;;19.19;30.09;100430.63;4985022;28;20088;-65
2023/06/12 02:49:35;;;;;;;10.90;3.63;;;;;;;19.20;30.13;100440.41;5017157;28;20037;-65
2023/06/12 02:52:03;;;;;;;5.50;2.90;;;;;;;19.27;30.01;100433.22;5000855;28;20077;-65
2023/06/12 02:54:29;;;;;;;9.55;3.00;;;;;;;19.22;30.05;100443.72;5001291;28;20397;-65
2023/06/12 02:56:59;;;;;;;7.53;3.13;;;;;;;19.30;29.94;100432.84;5001921;28;20041;-64
2023/06/12 02:59:25;;;;;;;11.55;3.53;;;;;;;19.35;29.94;100430.41;5000678;28;20485;-65
2023/06/12 03:01:57;;;;;;;11.95;3.05;;;;;;;19.44;29.95;100431.06;4986054;28;20049;-65
2023/06/12 03:04:38;;;;;;;9.23;3.25;;;;;;;19.49;30.02;100432.16;5019520;28;20504;-65
2023/06/12 03:07:05;;;;;;;8.98;3.53;;;;;;;19.51;29.83;100429.28;5000651;28;20041;-65
2023/06/12 03:09:32;;;;;;;6.18;3.15;;;;;;;19.54;29.96;100424.31;5000708;28;20045;-65
2023/06/12 03:12:00;;;;;;;8.02;4.75;;;;;;;19.59;29.66;100431.81;5016551;28;20496;-65
2023/06/12 03:14:27;;;;;;;12.52;3.88;;;;;;;19.65;29.68;100434.56;4983505;28;20080;-65
2023/06/12 03:16:54;;;;;;;9.82;3.55;;;;;;;19.73;29.83;100434.41;4983328;28;20057;-65
2023/06/12 03:19:20;;;;;;;10.50;3.28;;;;;;;19.80;29.50;100437.16;5016105;28;20104;-65
2023/06/12 03:21:46;;;;;;;12.55;3.47;;;;;;;19.87;29.24;100444.25;4999190;28;20041;-66
2023/06/12 03:24:13;;;;;;;8.15;3.28;;;;;;;19.92;29.31;100449.88;5015556;28;20065;-65
2023/06/12 03:26:41;;;;;;;8.40;3.05;;;;;;;19.97;29.12;100444.69;5003480;28;20481;-65
2023/06/12 03:29:08;;;;;;;13.48;3.45;;;;;;;20.01;28.88;100451.38;5018967;28;20508;-65
2023/06/12 03:31:34;;;;;;;10.52;3.33;;;;;;;20.06;28.89;100448.91;5018802;28;20114;-65
2023/06/12 03:34:01;;;;;;;11.77;3.00;;;;;;;20.09;28.72;100456.63;5035119;28;20076;-65
2023/06/12 03:36:33;;;;;;;5.47;2.63;;;;;;;20.14;28.54;100458.75;4979297;28;20075;-65
2023/06/12 03:39:02;;;;;;;9.52;2.42;;;;;;;20.38;28.49;100452.00;4964316;28;20095;-65
2023/06/12 03:41:29;;;;;;;11.52;2.83;;;;;;;20.36;28.73;100456.78;4996126;28;20050;-65
2023/06/12 03:43:55;;;;;;;6.20;2.53;;;;;;;20.45;28.12;100453.69;4963176;28;20050;-65
2023/06/12 03:46:21;;;;;;;8.18;2.70;;;;;;;20.52;28.25;100462.66;4980690;28;20091;-65
2023/06/12 03:48:47;;;;;;;8.52;2.90;;;;;;;20.64;28.21;100454.78;4982703;28;20044;-65
2023/06/12 03:51:13;;;;;;;6.57;2.30;;;;;;;20.81;27.87;100464.19;4982196;28;20050;-65
2023/06/12 03:53:39;;;;;;;6.78;2.20;;;;;;;20.75;27.84;100451.50;4981396;28;20504;-65
2023/06/12 03:56:06;;;;;;;11.77;2.60;;;;;;;20.83;27.63;100462.97;4982482;28;20057;-65
2023/06/12 03:58:32;;;;;;;7.65;2.55;;;;;;;20.80;27.99;100457.13;4982374;28;20053;-65
2023/06/12 04:00:58;;;;;;;7.03;2.75;;;;;;;20.91;27.54;100453.84;4982334;28;20052;-65
2023/06/12 04:03:25;;;;;;;6.30;2.22;;;;;;;21.02;27.47;100459.47;4982472;28;20466;-65
2023/06/12 04:05:53;;;;;;;8.05;2.80;;;;;;;21.22;27.49;100459.50;4999001;28;20060;-66
2023/06/12 04:08:20;;;;;;;8.23;2.15;;;;;;;21.35;27.47;100456.81;5019068;28;20049;-65
2023/06/12 04:10:51;;;;;;;5.13;1.90;;;;;;;21.48;26.99;100454.13;5019668;28;20381;-65
2023/06/12 04:13:18;;;;;;;4.57;2.20;;;;;;;21.28;26.79;100447.91;5019136;28;20040;-65
2023/06/12 04:15:44;;;;;;;16.08;1.95;;;;;;;21.40;26.75;100457.03;5035383;28;20091;-65
2023/06/12 04:18:10;;;;;;;8.93;1.92;;;;;;;21.51;26.87;100461.81;5002774;28;20465;-65
2023/06/12 04:20:38;;;;;;;3.45;1.88;;;;;;;21.57;26.51;100456.41;5035351;28;20037;-65
2023/06/12 04:23:04;;;;;;;11.00;2.20;;;;;;;21.69;26.89;100467.41;5019048;28;20135;-65
2023/06/12 04:25:36;;;;;;;10.02;2.00;;;;;;;21.74;26.80;100459.53;5019086;28;20507;-65
2023/06/12 04:28:03;;;;;;;5.93;2.08;;;;;;;21.90;26.17;100458.25;5014741;28;20374;-65
2023/06/12 04:30:31;;;;;;;4.47;1.50;;;;;;;21.89;26.12;100472.81;4981917;28;20440;-65
2023/06/12 04:32:59;;;;;;;11.68;2.00;;;;;;;22.06;26.03;100468.63;5010698;28;20054;-66
2023/06/12 04:35:26;;;;;;;4.55;1.70;;;;;;;22.02;25.90;100462.00;4963118;28;20149;-65
2023/06/12 04:37:52;;;;;;;7.90;1.60;;;;;;;22.07;25.34;100463.00;4962400;28;20093;-65
2023/06/12 04:40:20;;;;;;;5.13;1.60;;;;;;;22.09;25.63;100468.22;4978492;28;20490;-65
2023/06/12 04:42:47;;;;;;;7.10;1.67;;;;;;;22.26;25.24;100464.84;4978384;28;20508;-66
2023/06/12 04:45:13;;;;;;;10.02;1.80;;;;;;;22.33;25.45;100449.38;4994375;28;20057;-65
2023/06/12 04:47:41;;;;;;;5.95;1.88;;;;;;;22.40;25.12;100454.78;4978409;28;20144;-65
2023/06/12 04:50:10;;;;;;;8.10;1.55;;;;;;;22.79;24.98;100454.63;4978079;28;20441;-65
2023/06/12 04:52:39;;;;;;;1.90;1.45;;;;;;;22.80;24.75;100457.09;4962175;28;20092;-65
2023/06/12 04:55:09;;;;;;;3.70;1.55;;;;;;;22.71;24.38;100452.19;4994731;28;20045;-66
2023/06/12 04:57:43;;;;;;;6.38;1.60;;;;;;;22.73;24.43;100455.47;4978533;28;20478;-66
2023/06/12 05:00:15;;;;;;;7.57;1.70;;;;;;;22.95;24.18;100454.13;4985888;28;20049;-66
2023/06/12 05:02:43;;;;;;;1.90;1.40;;;;;;;23.08;24.11;100459.44;5001334;28;20572;-65
2023/06/12 05:05:09;;;;;;;4.07;1.40;;;;;;;22.99;23.95;100452.63;5017829;28;20191;-65
2023/06/12 05:07:35;;;;;;;2.35;1.10;;;;;;;22.98;23.62;100454.50;5018035;28;20551;-65
2023/06/12 05:10:03;;;;;;;4.43;1.50;;;;;;;23.11;23.50;100446.28;5002060;28;20346;-65
2023/06/12 05:12:32;;;;;;;5.30;1.40;;;;;;;23.16;23.26;100449.16;5003194;28;20048;-65
2023/06/12 05:15:00;;;;;;;3.10;1.48;;;;;;;23.32;23.04;100441.56;5002131;28;20385;-66
2023/06/12 05:17:27;;;;;;;3.00;1.30;;;;;;;23.29;22.79;100438.25;5002465;28;20037;-65
2023/06/12 05:19:54;;;;;;;3.25;1.20;;;;;;;23.41;22.61;100441.06;5034620;28;20083;-65
2023/06/12 05:22:21;;;;;;;4.15;1.50;;;;;;;23.42;22.44;100450.88;5002254;28;20156;-65
2023/06/12 05:24:47;;;;;;;7.13;1.27;;;;;;;23.71;22.62;100449.38;5001599;28;20063;-65
2023/06/12 05:27:14;;;;;;;3.22;1.13;;;;;;;23.72;22.87;100449.16;5034224;28;20057;-65
2023/06/12 05:29:40;;;;;;;3.92;1.30;;;;;;;23.68;22.68;100447.09;5051189;28;20041;-65
2023/06/12 05:32:08;;;;;;;2.70;1.35;;;;;;;23.89;22.73;100439.38;5018086;28;20492;-65
2023/06/12 05:34:36;;;;;;;4.75;1.70;;;;;;;23.89;22.40;100442.09;5001902;28;20041;-65
2023/06/12 05:37:03;;;;;;;3.15;1.50;;;;;;;24.00;22.42;100433.22;5001583;28;20036;-65
2023/06/12 05:39:30;;;;;;;7.85;1.63;;;;;;;24.05;22.16;100436.09;5018489;28;20096;-65
2023/06/12 05:41:56;;;;;;;5.93;2.30;;;;;;;24.13;22.21;100443.94;4997239;28;20381;-65
2023/06/12 05:44:23;;;;;;;4.70;1.70;;;;;;;24.14;21.93;100420.34;4965034;28;20045;-66
2023/06/12 05:46:52;;;;;;;5.97;1.40;;;;;;;24.19;21.60;100436.75;4997037;28;20091;-65
2023/06/12 05:49:20;;;;;;;2.20;1.20;;;;;;;24.20;21.28;100435.72;4981417;28;20049;-65
2023/06/12 05:51:46;;;;;;;4.78;1.80;;;;;;;24.30;21.12;100430.56;4980806;28;20049;-65
2023/06/12 05:54:13;;;;;;;4.97;2.28;;;;;;;24.40;21.50;100437.13;4981238;28;20057;-65
2023/06/12 05:56:42;;;;;;;7.88;2.50;;;;;;;24.76;21.00;100433.53;4980802;28;20148;-65
2023/06/12 05:59:08;;;;;;;11.88;2.30;;;;;;;24.60;20.71;100436.88;4981052;28;20041;-65
2023/06/12 06:01:35;;;;;;;4.20;1.70;;;;;;;24.66;20.47;100439.53;4964763;28;20050;-65
2023/06/12 06:04:06;;;;;;;5.40;1.55;;;;;;;24.82;20.29;100427.19;4997498;28;20045;-65
2023/06/12 06:06:32;;;;;;;3.55;1.33;;;;;;;24.92;20.28;100439.16;4981608;28;20055;-67
2023/06/12 06:09:03;;;;;;;2.45;1.30;;;;;;;24.97;20.10;100432.22;4981346;28;20045;-65
2023/06/12 06:11:30;;;;;;;2.05;1.50;;;;;;;25.08;19.76;100434.13;4997339;28;20061;-65
2023/06/12 06:13:58;;;;;;;8.65;2.67;;;;;;;25.15;19.81;100426.69;5016244;28;20045;-66
2023/06/12 06:16:24;;;;;;;6.25;1.80;;;;;;;25.20;19.69;100438.50;5003212;28;20070;-65
2023/06/12 06:18:51;;;;;;;6.25;1.50;;;;;;;25.41;19.73;100429.84;5005174;28;20041;-65
2023/06/12 06:21:18;;;;;;;3.83;1.48;;;;;;;25.23;19.69;100426.34;5021104;28;20045;-65
2023/06/12 06:23:45;;;;;;;2.72;1.60;;;;;;;25.29;19.08;100418.09;5021169;28;20076;-65
2023/06/12 06:26:12;;;;;;;10.30;1.63;;;;;;;25.34;19.33;100431.03;5021381;28;20496;-65
2023/06/12 06:28:38;;;;;;;6.53;1.33;;;;;;;25.47;19.49;100423.47;5004738;28;20099;-65
2023/06/12 06:31:06;;;;;;;3.30;1.23;;;;;;;25.65;19.26;100420.63;5020687;28;20498;-66
2023/06/12 06:33:33;;;;;;;2.58;1.15;;;;;;;25.73;19.10;100417.56;5054015;28;20075;-65
2023/06/12 06:35:59;;;;;;;4.97;1.50;;;;;;;25.74;18.93;100416.47;5020911;28;20045;-65
2023/06/12 06:38:25;;;;;;;7.45;1.50;;;;;;;25.74;18.55;100419.19;5020995;28;20135;-65
2023/06/12 06:40:52;;;;;;;2.35;1.10;;;;;;;25.96;18.60;100417.53;5004441;28;20528;-65
2023/06/12 06:43:19;;;;;;;6.07;1.42;;;;;;;25.96;18.62;100408.53;5004589;28;20099;-65
2023/06/12 06:45:51;;;;;;;4.47;1.10;;;;;;;25.94;18.24;100402.50;5006001;28;20048;-67
2023/06/12 06:48:18;;;;;;;7.20;1.40;;;;;;;26.01;18.15;100414.97;5004860;28;20040;-65
2023/06/12 06:50:44;;;;;;;1.70;1.10;;;;;;;26.02;18.12;100402.16;5036926;28;20122;-65
2023/06/12 06:53:12;;;;;;;7.35;1.38;;;;;;;26.34;18.10;100404.22;5020738;28;20068;-65
2023/06/12 06:55:38;;;;;;;5.80;1.42;;;;;;;26.17;18.00;100397.84;5036795;28;20048;-66
2023/06/12 06:58:05;;;;;;;5.13;1.35;;;;;;;26.13;17.60;100404.88;5004642;28;20049;-67
2023/06/12 07:00:32;;;;;;;5.82;1.30;;;;;;;26.24;17.95;100420.34;5004768;28;20487;-65
2023/06/12 07:02:58;;;;;;;8.15;1.42;;;;;;;26.43;17.77;100410.91;5015798;28;20045;-66
2023/06/12 07:05:27;;;;;;;9.82;1.63;;;;;;;26.75;17.23;100410.47;4967516;28;20603;-65
2023/06/12 07:07:54;;;;;;;9.18;1.40;;;;;;;27.21;16.91;100421.13;4967439;28;20140;-65
2023/06/12 07:10:21;;;;;;;3.88;1.25;;;;;;;27.13;17.14;100411.44;4999688;28;20061;-66
2023/06/12 07:12:56;;;;;;;3.03;1.10;;;;;;;27.41;16.91;100394.19;4983315;28;20524;-65
2023/06/12 07:15:25;;;;;;;8.18;1.50;;;;;;;27.69;16.56;100399.56;4984568;28;20065;-65
2023/06/12 07:17:52;;;;;;;3.63;1.30;;;;;;;27.85;16.34;100404.13;4983449;28;20140;-65
2023/06/12 07:20:20;;;;;;;10.85;1.20;;;;;;;28.34;16.10;100394.97;4999158;28;20488;-65
2023/06/12 07:22:47;;;;;;;4.10;1.40;;;;;;;28.46;15.90;100395.66;4967105;28;20128;-66
2023/06/12 07:25:14;;;;;;;4.22;1.50;;;;;;;28.79;15.56;100391.94;4967165;28;20061;-66
2023/06/12 07:27:40;;;;;;;4.88;1.10;;;;;;;29.16;15.20;100390.13;4966762;28;20115;-66
2023/06/12 07:30:09;;;;;;;2.35;1.05;;;;;;;29.52;14.72;100398.34;4967819;28;20243;-66
2023/06/12 07:32:37;;;;;;;7.85;1.65;;;;;;;29.81;14.07;100374.22;4983798;28;20053;-65
2023/06/12 07:35:05;;;;;;;4.63;1.60;;;;;;;30.53;13.43;100385.22;5003172;28;20049;-66
2023/06/12 07:37:35;;;;;;;4.50;1.35;;;;;;;31.15;13.63;100377.66;5020142;28;20044;-65
2023/06/12 07:40:05;;;;;;;8.25;1.55;;;;;;;32.65;12.36;100388.28;5036836;28;20392;-66
2023/06/12 07:42:35;;;;;;;8.40;1.60;;;;;;;34.13;11.41;100398.56;5053014;28;20087;-66
2023/06/12 07:45:02;;;;;;;4.65;1.30;;;;;;;35.58;10.61;100390.91;5003860;28;20469;-66
2023/06/12 07:47:33;;;;;;;8.88;1.55;;;;;;;37.40;9.31;100387.81;5036424;28;20075;-66
2023/06/12 07:50:01;;;;;;;6.65;1.52;;;;;;;37.99;9.03;100393.69;5035885;28;20131;-67
2023/06/12 07:52:30;;;;;;;7.47;1.52;;;;;;;39.27;7.94;100391.13;5052347;28;20480;-66
2023/06/12 07:54:58;;;;;;;7.90;1.75;;;;;;;41.42;6.84;100390.41;5035948;28;20477;-67
2023/06/12 07:57:25;;;;;;;7.18;1.25;;;;;;;42.81;6.20;100375.13;5015599;28;20429;-67
2023/06/12 07:59:51;;;;;;;5.28;1.42;;;;;;;43.40;5.60;100395.63;5035449;28;20102;-67
2023/06/12 08:02:18;;;;;;;4.68;1.40;;;;;;;43.65;5.40;100380.34;5019329;28;20067;-67
2023/06/12 08:04:45;;;;;;;3.00;1.10;;;;;;;43.60;5.61;100380.59;5019246;28;20551;-67
2023/06/12 08:07:16;;;;;;;4.63;1.30;;;;;;;43.46;5.06;100374.59;5019806;28;20075;-67
2023/06/12 08:09:44;;;;;;;6.22;1.50;;;;;;;43.68;5.20;100370.38;5052885;28;20048;-67
2023/06/12 08:12:11;;;;;;;3.67;1.00;;;;;;;43.48;5.24;100374.22;5035633;28;20057;-67
2023/06/12 08:14:38;;;;;;;4.90;1.25;;;;;;;44.37;5.05;100378.97;5002785;28;20048;-67
2023/06/12 08:17:06;;;;;;;2.25;1.30;;;;;;;44.74;4.58;100369.00;5019116;28;20488;-67
2023/06/12 08:19:37;;;;;;;8.48;1.17;;;;;;;45.04;4.54;100370.06;5051795;28;20106;-67
2023/06/12 08:22:07;;;;;;;10.57;1.30;;;;;;;44.31;4.76;100367.22;5002803;28;20144;-67
2023/06/12 08:24:36;;;;;;;9.88;1.58;;;;;;;45.05;4.38;100370.88;5003205;28;20535;-67
2023/06/12 08:27:02;;;;;;;5.50;1.20;;;;;;;45.40;3.94;100378.00;5018563;28;20048;-67
2023/06/12 08:29:30;;;;;;;6.55;1.20;;;;;;;46.42;3.66;100368.53;5002391;28;20070;-67
2023/06/12 08:31:56;;;;;;;3.30;1.20;;;;;;;47.33;3.15;100364.09;5018500;28;20041;-67
2023/06/12 08:34:24;;;;;;;3.67;1.25;;;;;;;47.58;2.94;100367.19;5035025;28;20056;-67
2023/06/12 08:36:52;;;;;;;8.75;1.23;;;;;;;47.77;3.16;100371.78;5018656;28;20131;-67
2023/06/12 08:39:18;;;;;;;6.55;1.30;;;;;;;48.27;3.08;100365.34;5034185;28;20118;-68
2023/06/12 08:42:08;;;;;;;8.18;1.70;;;;;;;47.48;2.96;100368.69;5035513;28;20116;-67
2023/06/12 08:44:35;;;;;;;0.98;0.90;;;;;;;46.46;3.64;100355.31;5034825;28;20464;-67
2023/06/12 08:47:04;;;;;;;8.10;1.13;;;;;;;46.93;3.48;100361.22;5017682;28;20049;-67
2023/06/12 08:49:30;;;;;;;5.78;1.25;;;;;;;47.77;2.93;100332.34;5051529;28;20036;-67
2023/06/12 08:52:01;;;;;;;5.07;1.20;;;;;;;47.59;3.05;100346.28;5018505;28;20037;-67
2023/06/12 08:54:29;;;;;;;5.82;1.38;;;;;;;47.59;3.17;100366.78;5018908;28;20520;-67
2023/06/12 08:56:59;;;;;;;10.73;2.80;;;;;;;48.13;3.00;100357.63;5018587;28;20211;-68
2023/06/12 08:59:25;;;;;;;8.27;1.30;;;;;;;48.44;2.56;100347.75;5034756;28;20047;-67
2023/06/12 09:01:55;;;;;;;6.07;1.58;;;;;;;48.95;2.61;100356.84;5018085;28;20044;-67
2023/06/12 09:04:32;;;;;;;8.07;1.45;;;;;;;49.04;2.72;100348.88;5018435;28;20036;-67
2023/06/12 09:07:01;;;;;;;4.03;1.02;;;;;;;49.12;2.17;100341.22;5051033;28;20605;-67
2023/06/12 09:09:37;;;;;;;3.15;1.00;;;;;;;49.32;2.58;100343.31;5002128;28;20041;-67
2023/06/12 09:12:06;;;;;;;10.18;1.45;;;;;;;48.99;2.69;100329.50;5013343;28;20124;-67
2023/06/12 09:14:34;;;;;;;5.67;1.20;;;;;;;48.64;2.58;100335.78;4997365;28;20045;-67
2023/06/12 09:17:04;;;;;;;5.82;1.13;;;;;;;49.36;2.70;100337.66;4997228;28;20059;-67
2023/06/12 09:19:45;;;;;;;4.30;1.35;;;;;;;50.34;2.56;100346.97;4977463;28;20077;-67
2023/06/12 09:22:12;;;;;;;9.98;1.92;;;;;;;50.57;2.06;100346.47;4971354;28;20046;-67
2023/06/12 09:24:38;;;;;;;9.50;1.33;;;;;;;51.11;1.87;100339.38;4954946;28;20565;-67
2023/06/12 09:27:07;;;;;;;2.45;1.10;;;;;;;51.62;1.60;100317.59;4939053;28;20450;-67
2023/06/12 09:29:35;;;;;;;5.65;1.20;;;;;;;51.45;1.68;100312.88;4907693;28;20058;-67
2023/06/12 09:32:07;;;;;;;8.93;1.60;;;;;;;51.77;1.62;100321.09;4939224;28;20537;-67
2023/06/12 09:34:34;;;;;;;3.33;1.15;;;;;;;51.06;1.70;100317.97;4939033;28;20059;-67
2023/06/12 09:37:06;;;;;;;7.53;1.15;;;;;;;51.20;1.65;100308.56;4923342;28;20399;-67
2023/06/12 09:39:33;;;;;;;4.38;1.15;;;;;;;51.59;1.73;100304.22;4923344;28;20585;-67
2023/06/12 09:42:00;;;;;;;3.70;1.40;;;;;;;50.89;1.48;100306.72;4924389;28;20059;-67
2023/06/12 09:44:30;;;;;;;9.07;1.40;;;;;;;50.43;1.83;100306.91;4926794;28;20054;-67
2023/06/12 09:47:01;;;;;;;4.10;1.20;;;;;;;50.00;2.37;100311.88;4942359;28;20556;-68
2023/06/12 09:49:28;;;;;;;2.75;1.15;;;;;;;49.75;1.90;100304.63;4946307;28;20057;-67
2023/06/12 09:51:54;;;;;;;6.20;1.67;;;;;;;50.05;1.83;100296.53;4968460;28;20061;-68
2023/06/12 09:54:22;;;;;;;3.25;1.42;;;;;;;50.27;1.95;100298.06;4984485;28;20103;-68
2023/06/12 09:56:53;;;;;;;8.52;1.35;;;;;;;50.25;2.17;100298.50;5017120;28;20049;-67
2023/06/12 09:59:23;;;;;;;3.17;1.50;;;;;;;49.97;2.16;100295.69;5001112;28;20064;-68
2023/06/12 10:01:51;;;;;;;3.70;1.10;;;;;;;50.48;2.19;100293.19;4985055;28;20064;-67
2023/06/12 10:04:24;;;;;;;6.88;1.30;;;;;;;50.34;1.95;100301.72;5000779;28;20086;-68
2023/06/12 10:06:51;;;;;;;7.35;1.35;;;;;;;50.53;2.09;100304.03;4984566;28;20041;-67
2023/06/12 10:09:17;;;;;;;5.47;1.30;;;;;;;50.31;2.13;100277.06;4984239;28;20055;-68
2023/06/12 10:11:44;;;;;;;7.13;1.35;;;;;;;50.16;1.65;100281.13;5000702;28;20056;-67
2023/06/12 10:14:11;;;;;;;5.60;1.40;;;;;;;49.76;1.83;100284.44;4984525;28;20091;-68
2023/06/12 10:16:42;;;;;;;5.70;1.25;;;;;;;49.26;2.54;100282.75;4984340;28;20041;-67
2023/06/12 10:19:08;;;;;;;7.80;1.55;;;;;;;48.86;2.48;100269.78;5000587;28;20053;-67
2023/06/12 10:21:35;;;;;;;2.63;1.55;;;;;;;49.11;2.65;100275.50;4984067;28;20526;-67
2023/06/12 10:24:03;;;;;;;3.97;1.40;;;;;;;49.28;2.21;100277.53;4984284;28;20069;-67
2023/06/12 10:26:29;;;;;;;3.70;1.40;;;;;;;48.95;2.48;100272.19;5037031;28;20045;-68
2023/06/12 10:28:55;;;;;;;3.72;1.42;;;;;;;48.96;2.44;100274.63;5024199;28;20040;-67
2023/06/12 10:31:23;;;;;;;4.90;1.60;;;;;;;49.12;2.37;100277.09;5040486;28;20040;-67
2023/06/12 10:34:10;;;;;;;3.85;1.40;;;;;;;49.14;2.20;100277.50;5040916;28;20389;-67
2023/06/12 10:36:44;;;;;;;3.78;1.25;;;;;;;48.53;2.80;100272.06;5013416;28;20085;-67
2023/06/12 10:39:19;;;;;;;6.45;1.58;;;;;;;48.35;2.68;100259.91;4999972;28;20096;-67
2023/06/12 10:41:52;;;;;;;6.25;1.45;;;;;;;47.70;2.94;100250.63;4983952;28;20417;-67
2023/06/12 10:44:38;;;;;;;7.60;1.95;;;;;;;46.68;3.18;100213.03;4999782;28;20053;-68
2023/06/12 10:47:05;;;;;;;10.05;1.85;;;;;;;45.58;3.71;100257.63;4967924;28;20053;-67
2023/06/12 10:50:05;;;;;;;13.27;1.60;;;;;;;45.02;3.95;100253.81;4983719;28;20045;-67
2023/06/12 10:52:33;;;;;;;8.68;2.25;;;;;;;45.26;4.47;100261.84;4999878;28;20123;-67
2023/06/12 10:55:20;;;;;;;7.65;1.70;;;;;;;45.38;3.97;100242.03;4967438;28;20144;-67
2023/06/12 10:58:08;;;;;;;6.57;1.55;;;;;;;45.14;3.88;100250.81;4967761;28;20053;-67
2023/06/12 11:00:48;;;;;;;5.00;1.50;;;;;;;44.79;4.31;100248.16;4983307;28;20065;-67
2023/06/12 11:03:26;;;;;;;5.85;1.30;;;;;;;44.69;4.11;100229.94;4999407;28;20148;-67
2023/06/12 11:05:58;;;;;;;8.80;1.40;;;;;;;43.55;4.66;100234.53;4983766;28;20068;-67
2023/06/12 11:08:28;;;;;;;8.80;1.60;;;;;;;41.59;5.57;100234.00;5021046;28;20075;-66
2023/06/12 11:10:54;;;;;;;5.13;1.48;;;;;;;40.15;5.95;100228.75;5056700;28;20068;-67
2023/06/12 11:13:24;;;;;;;9.27;1.67;;;;;;;39.33;6.46;100227.72;5023463;28;20071;-68
2023/06/12 11:15:54;;;;;;;4.05;1.58;;;;;;;38.29;6.72;100206.84;5007184;28;20055;-66
2023/06/12 11:18:20;;;;;;;2.88;1.65;;;;;;;37.49;7.53;100216.81;5023621;28;20056;-68
2023/06/12 11:20:56;;;;;;;6.55;1.90;;;;;;;37.11;7.95;100238.59;5040045;28;20044;-66
2023/06/12 11:23:26;;;;;;;12.30;1.73;;;;;;;34.91;9.19;100216.69;5039651;28;20097;-67
2023/06/12 11:25:53;;;;;;;;;;;;;;;34.68;9.25;100210.19;5039899;28;20079;-66
2023/06/12 11:28:25;;;;;;;5.82;1.88;;;;;;;34.60;9.44;100205.34;5023045;28;20427;-66
2023/06/12 11:30:53;;;;;;;6.07;1.80;;;;;;;34.28;9.39;100202.53;5040435;28;20044;-66
2023/06/12 11:33:20;;;;;;;9.82;1.80;;;;;;;33.94;9.64;100196.44;5039746;28;20139;-66